Manhattan, MT (59741)

2:44 PM MDT on August 28, 2016 (GMT -0600)
APRSWXNET | | Change Station
Active Advisory: Air Quality Alert

Elev 4232 ft 45.88 °N, 111.41 °W | Updated 21 minutes ago

Clear
Clear
85 °F
Feels Like 82 °F
N
12
Wind Variable Wind from WNW
Gusts 0.0 mph

Today
High -- | Low -- °F
--% Chance of Precip.
Yesterday
High -- | Low -- °F
Precip. -- in
Pressure 29.97 in
Visibility 7.0 miles
Clouds Clear
Heat Index 82 °F
Dew Point 43 °F
Humidity 23%
Rainfall in
Snow Depth Not available.
6:42 AM 8:09 PM
Waning Crescent, 13% visible
METAR KBZN 281956Z 31004KT 7SM CLR 27/02 A3008 RMK AO2 SLP148 T02670022
Pressure 29.97 in
Visibility 7.0 miles
Clouds Clear
Heat Index 82 °F
Dew Point 43 °F
Humidity 23%
Rainfall in
Snow Depth Not available.
6:42 AM 8:09 PM
Waning Crescent, 13% visible
METAR KBZN 281956Z 31004KT 7SM CLR 27/02 A3008 RMK AO2 SLP148 T02670022

10-Day Weather Forecast

Almanac

Astronomy

Aug. 28, 2016 Rise Set
Actual Time
Civil Twilight
Nautical Twilight
Astronomical Twilight
Moon
Length of Visible Light
Length of Day
Tomorrow will be .
, % of the Moon is Illuminated

Today's Extremes

State Highs State Lows

Community

WunderPhotos

Upload Photos

1,935,689 photos uploaded!

WunderBlog® & News

Nearby

Air Quality

  Air Quality AQ Index Pollutant
Not available.

Snow Depth

Station Depth Elevation

Earthquake Activity

City Distance Mag. Time & Date
Minimum magnitude displayed is 2.5.

Coastal Water Temperatures

Place Temperature

Stations

Nearby Weather Stations

Station Location Temp. Windchill Dew Point Humidity Wind Precip. Elev Updated Type
                   

Watches & Warnings

Air Quality Alert
Issued: 9:00 AM MDT Aug. 28, 2016 – National Weather Service

The Montana department of environmental quality has issued an air
quality alert for Gallatin County in effect until further notice due
to nearby wildfire activity. Significant air quality impacts are
expected in the southern portion of Gallatin County near Yellowstone
National Park. This alert will be updated again at 900am on August
29... 2016.

An air quality alert means that particulates have been trending
upwards and that an exceedence of the 24 hour National ambient air
quality Standard (naaqs) has occurred or may occur in the near
future.

Particulate levels in West Yellowstone are unhealthy.

When air quality is unhealthy... state and local health officials
recommend that people with respiratory or heart disease... the elderly...
and children should avoid prolonged exertion... everyone else should
limit prolonged exertion.

For more information... visit the Montana department of environmental
quality at www.Todaysair.Mt.Gov.